createdAt,value
2022-09-03T00:02:10.086Z,0.90
2022-09-03T00:04:48.715Z,1.30
2022-09-03T00:07:22.059Z,0.83
2022-09-03T00:09:56.960Z,1.00
2022-09-03T00:12:30.681Z,1.23
2022-09-03T00:15:05.288Z,0.80
2022-09-03T00:17:39.404Z,1.13
2022-09-03T00:20:12.755Z,0.93
2022-09-03T00:22:44.626Z,1.10
2022-09-03T00:25:21.307Z,0.80
2022-09-03T00:27:58.833Z,1.03
2022-09-03T00:30:27.909Z,1.00
2022-09-03T00:33:01.864Z,1.30
2022-09-03T00:35:36.209Z,0.90
2022-09-03T00:38:04.642Z,1.00
2022-09-03T00:40:57.291Z,1.30
2022-09-03T00:43:46.136Z,0.80
2022-09-03T00:46:23.721Z,0.80
2022-09-03T00:49:25.892Z,1.00
2022-09-03T00:52:09.507Z,1.00
2022-09-03T00:54:49.743Z,0.70
2022-09-03T00:57:35.118Z,1.20
2022-09-03T01:00:10.082Z,1.00
2022-09-03T01:02:58.606Z,0.93
2022-09-03T01:05:44.086Z,1.00
2022-09-03T01:08:31.472Z,0.80
2022-09-03T01:11:12.624Z,0.73
2022-09-03T01:13:47.941Z,0.80
2022-09-03T01:16:28.204Z,1.03
2022-09-03T01:19:08.913Z,1.10
2022-09-03T01:22:20.161Z,1.00
2022-09-03T01:25:08.036Z,1.00
2022-09-03T01:27:47.724Z,1.00
2022-09-03T01:30:22.884Z,0.90
2022-09-03T01:33:00.138Z,1.07
2022-09-03T01:35:35.950Z,1.57
2022-09-03T01:38:21.470Z,1.07
2022-09-03T01:41:22.390Z,1.30
2022-09-03T01:44:04.163Z,0.80
2022-09-03T01:46:40.562Z,1.17
2022-09-03T01:49:22.503Z,0.90
2022-09-03T01:52:00.033Z,0.90
2022-09-03T01:54:59.995Z,1.03
2022-09-03T01:57:56.015Z,1.10
2022-09-03T02:00:25.056Z,0.80
2022-09-03T02:02:54.998Z,1.00
2022-09-03T02:05:25.752Z,0.90
2022-09-03T02:08:01.389Z,1.17
2022-09-03T02:10:34.104Z,1.30
2022-09-03T02:13:07.824Z,0.73
2022-09-03T02:15:38.641Z,1.00
2022-09-03T02:18:17.168Z,0.73
2022-09-03T02:20:47.736Z,1.00
2022-09-03T02:23:16.658Z,0.80
2022-09-03T02:25:49.475Z,0.70
2022-09-03T02:28:17.900Z,1.20
2022-09-03T02:30:46.426Z,0.90
2022-09-03T02:33:16.344Z,1.00
2022-09-03T02:35:44.522Z,1.17
2022-09-03T02:38:14.266Z,1.07
2022-09-03T02:40:42.520Z,1.10
2022-09-03T02:43:16.924Z,1.00
2022-09-03T02:45:49.833Z,0.93
2022-09-03T02:48:24.739Z,1.17
2022-09-03T02:50:53.186Z,0.90
2022-09-03T02:53:21.862Z,0.80
2022-09-03T02:55:50.758Z,1.00
2022-09-03T02:58:18.810Z,1.00
2022-09-03T03:00:49.243Z,1.10
2022-09-03T03:03:17.296Z,0.90
2022-09-03T03:05:50.576Z,0.90
2022-09-03T03:08:21.456Z,1.10
2022-09-03T03:10:51.876Z,0.80
2022-09-03T03:13:20.053Z,1.00
2022-09-03T03:15:48.964Z,1.27
2022-09-03T03:18:17.543Z,0.80
2022-09-03T03:20:48.205Z,1.10
2022-09-03T03:23:16.308Z,0.90
2022-09-03T03:25:44.354Z,0.97
2022-09-03T03:28:13.676Z,1.40
2022-09-03T03:30:42.836Z,1.17
2022-09-03T03:33:11.433Z,1.23
2022-09-03T03:35:40.886Z,0.93
2022-09-03T03:38:10.331Z,0.90
2022-09-03T03:40:39.442Z,1.33
2022-09-03T03:43:07.441Z,1.00
2022-09-03T03:45:35.575Z,0.97
2022-09-03T03:48:03.976Z,0.80
2022-09-03T03:50:32.504Z,1.07
2022-09-03T03:53:01.837Z,0.73
2022-09-03T03:55:35.152Z,0.80
2022-09-03T03:58:03.560Z,0.90
2022-09-03T04:00:31.799Z,1.10
2022-09-03T04:03:01.476Z,0.80
2022-09-03T04:05:33.582Z,1.13
2022-09-03T04:08:03.670Z,0.80
2022-09-03T04:10:33.528Z,1.20
2022-09-03T04:13:01.965Z,1.17
2022-09-03T04:15:30.019Z,0.73
2022-09-03T04:17:58.127Z,0.90
2022-09-03T04:20:26.177Z,1.00
2022-09-03T04:22:54.244Z,1.10
2022-09-03T04:25:22.356Z,1.03
2022-09-03T04:27:53.368Z,1.10
2022-09-03T04:30:21.930Z,1.17
2022-09-03T04:32:53.478Z,1.27
2022-09-03T04:35:21.904Z,0.80
2022-09-03T04:37:50.383Z,0.80
2022-09-03T04:40:18.931Z,0.90
2022-09-03T04:42:47.065Z,1.10
2022-09-03T04:45:18.781Z,1.10
2022-09-03T04:47:57.503Z,0.90
2022-09-03T04:50:27.853Z,1.10
2022-09-03T04:52:58.282Z,1.20
2022-09-03T04:55:26.470Z,1.33
2022-09-03T04:57:54.592Z,0.90
2022-09-03T05:00:24.071Z,1.03
2022-09-03T05:02:52.327Z,1.10
2022-09-03T05:05:20.881Z,1.00
2022-09-03T05:07:48.983Z,0.80
2022-09-03T05:10:20.402Z,0.87
2022-09-03T05:12:49.881Z,0.93
2022-09-03T05:15:18.185Z,0.90
2022-09-03T05:17:47.724Z,1.20
2022-09-03T05:20:15.956Z,1.30
2022-09-03T05:22:43.984Z,0.90
2022-09-03T05:25:12.075Z,1.00
2022-09-03T05:27:40.186Z,1.17
2022-09-03T05:30:09.431Z,0.80
2022-09-03T05:32:37.491Z,1.00
2022-09-03T05:35:10.557Z,0.97
2022-09-03T05:37:39.759Z,0.90
2022-09-03T05:40:11.527Z,2.43
2022-09-03T05:42:39.715Z,1.20
2022-09-03T05:45:10.981Z,1.20
2022-09-03T05:47:40.330Z,1.13
2022-09-03T05:50:10.805Z,0.87
2022-09-03T05:52:38.965Z,0.80
2022-09-03T05:55:10.614Z,1.03
2022-09-03T05:57:41.259Z,1.00
2022-09-03T06:00:11.771Z,0.80
2022-09-03T06:02:39.938Z,1.10
2022-09-03T06:05:10.164Z,1.33
2022-09-03T06:07:38.181Z,2.03
2022-09-03T06:10:07.827Z,1.40
2022-09-03T06:12:36.657Z,1.80
2022-09-03T06:15:05.737Z,1.97
2022-09-03T06:17:33.807Z,1.90
2022-09-03T06:20:01.850Z,1.33
2022-09-03T06:22:31.350Z,2.00
2022-09-03T06:24:59.663Z,1.73
2022-09-03T06:27:29.747Z,1.73
2022-09-03T06:29:59.420Z,2.23
2022-09-03T06:32:27.755Z,2.00
2022-09-03T06:34:55.876Z,1.97
2022-09-03T06:37:23.847Z,1.90
2022-09-03T06:39:54.106Z,2.00
2022-09-03T06:42:22.818Z,2.37
2022-09-03T06:44:51.278Z,2.13
2022-09-03T06:47:19.566Z,1.90
2022-09-03T06:49:47.625Z,1.90
2022-09-03T06:52:15.679Z,2.30
2022-09-03T06:54:44.070Z,2.03
2022-09-03T06:57:13.540Z,2.07
2022-09-03T06:59:43.687Z,2.00
2022-09-03T07:02:11.977Z,2.50
2022-09-03T07:04:40.124Z,2.00
2022-09-03T07:07:13.175Z,2.20
2022-09-03T07:09:44.068Z,2.07
2022-09-03T07:12:18.670Z,2.07
2022-09-03T07:14:48.490Z,2.20
2022-09-03T07:17:19.359Z,2.20
2022-09-03T07:19:47.433Z,2.03
2022-09-03T07:22:15.553Z,2.37
2022-09-03T07:24:46.868Z,2.33
2022-09-03T07:27:16.275Z,2.03
2022-09-03T07:29:44.340Z,2.37
2022-09-03T07:32:12.422Z,1.97
2022-09-03T07:34:40.490Z,2.10
2022-09-03T07:37:09.238Z,2.03
2022-09-03T07:39:37.490Z,2.30
2022-09-03T07:42:08.674Z,2.17
2022-09-03T07:44:38.206Z,2.20
2022-09-03T07:47:06.921Z,2.60
2022-09-03T07:49:35.245Z,3.83
2022-09-03T07:52:04.141Z,2.37
2022-09-03T07:54:32.333Z,2.40
2022-09-03T07:57:00.509Z,2.60
2022-09-03T07:59:28.768Z,2.37
2022-09-03T08:01:58.187Z,2.50
2022-09-03T08:04:26.376Z,2.13
2022-09-03T08:06:55.845Z,2.50
2022-09-03T08:09:24.434Z,2.47
2022-09-03T08:11:52.519Z,2.03
2022-09-03T08:14:20.636Z,2.20
2022-09-03T08:16:49.152Z,2.07
2022-09-03T08:19:19.474Z,1.97
2022-09-03T08:21:48.462Z,1.77
2022-09-03T08:24:20.985Z,2.10
2022-09-03T08:26:52.080Z,1.53
2022-09-03T08:29:21.438Z,2.30
2022-09-03T08:31:49.777Z,2.17
2022-09-03T08:34:19.506Z,2.47
2022-09-03T08:36:48.868Z,2.30
2022-09-03T08:39:17.296Z,2.20
2022-09-03T08:42:10.531Z,1.83
2022-09-03T08:44:47.304Z,2.20
2022-09-03T08:47:23.256Z,2.50
2022-09-03T08:49:57.966Z,1.90
2022-09-03T08:52:32.455Z,1.70
2022-09-03T08:55:18.022Z,2.03
2022-09-03T08:57:50.254Z,2.50
2022-09-03T09:00:20.054Z,2.53
2022-09-03T09:03:01.427Z,2.23
2022-09-03T09:05:46.807Z,2.40
2022-09-03T09:08:31.290Z,2.53
2022-09-03T09:11:07.449Z,2.87
2022-09-03T09:13:43.604Z,2.47
2022-09-03T09:16:20.321Z,1.80
2022-09-03T09:19:07.186Z,2.10
2022-09-03T09:21:46.321Z,2.40
2022-09-03T09:24:24.106Z,1.90
2022-09-03T09:26:59.752Z,2.57
2022-09-03T09:29:30.917Z,2.03
2022-09-03T09:31:59.369Z,2.00
2022-09-03T09:34:28.102Z,2.33
2022-09-03T09:36:57.686Z,2.27
2022-09-03T09:39:25.780Z,2.53
2022-09-03T09:42:09.972Z,2.13
2022-09-03T09:44:39.110Z,2.03
2022-09-03T09:47:11.919Z,2.03
2022-09-03T09:49:54.698Z,2.03
2022-09-03T09:52:28.427Z,2.30
2022-09-03T09:55:09.812Z,2.07
2022-09-03T09:57:39.701Z,3.50
2022-09-03T10:00:12.619Z,2.57
2022-09-03T10:02:42.555Z,3.17
2022-09-03T10:05:17.017Z,2.80
2022-09-03T10:07:57.073Z,2.10
2022-09-03T10:10:26.463Z,2.63
2022-09-03T10:13:01.664Z,2.77
2022-09-03T10:15:38.228Z,2.40
2022-09-03T10:18:17.236Z,2.80
2022-09-03T10:20:52.036Z,2.87
2022-09-03T10:23:25.799Z,3.10
2022-09-03T10:26:07.286Z,3.40
2022-09-03T10:28:41.268Z,3.20
2022-09-03T10:31:38.948Z,3.33
2022-09-03T10:34:15.331Z,2.87
2022-09-03T10:36:53.312Z,3.00
2022-09-03T10:39:27.137Z,3.57
2022-09-03T10:42:11.054Z,3.67
2022-09-03T10:45:00.735Z,3.97
2022-09-03T10:47:55.376Z,2.73
2022-09-03T10:50:28.902Z,3.23
2022-09-03T10:53:15.480Z,3.30
2022-09-03T10:55:52.460Z,3.30
2022-09-03T10:58:40.704Z,3.20
2022-09-03T11:01:22.331Z,3.80
2022-09-03T11:03:57.856Z,3.30
2022-09-03T11:06:29.900Z,2.97
2022-09-03T11:09:06.345Z,3.20
2022-09-03T11:11:42.889Z,2.90
2022-09-03T11:14:15.308Z,3.00
2022-09-03T11:16:49.149Z,3.87
2022-09-03T11:19:21.184Z,3.40
2022-09-03T11:21:50.826Z,3.70
2022-09-03T11:24:24.202Z,3.40
2022-09-03T11:27:04.143Z,3.53
2022-09-03T11:29:40.851Z,3.80
2022-09-03T11:32:17.485Z,3.83
2022-09-03T11:34:51.471Z,3.17
2022-09-03T11:37:24.326Z,3.17
2022-09-03T11:40:06.193Z,3.87
2022-09-03T11:42:40.988Z,3.30
2022-09-03T11:45:24.387Z,3.40
2022-09-03T11:47:53.782Z,3.00
2022-09-03T11:50:26.626Z,2.53
2022-09-03T11:53:07.829Z,3.47
2022-09-03T11:55:55.639Z,3.37
2022-09-03T11:58:32.841Z,2.93
2022-09-03T12:01:04.128Z,4.10
2022-09-03T12:03:45.484Z,2.77
2022-09-03T12:06:44.400Z,3.83
2022-09-03T12:09:51.521Z,3.47
2022-09-03T12:12:42.269Z,3.17
2022-09-03T12:15:23.640Z,3.97
2022-09-03T12:18:09.319Z,3.20
2022-09-03T12:20:37.508Z,3.90
2022-09-03T12:23:06.158Z,3.50
2022-09-03T12:25:34.636Z,2.77
2022-09-03T12:28:04.871Z,3.73
2022-09-03T12:30:35.942Z,2.93
2022-09-03T12:33:07.303Z,3.10
2022-09-03T12:38:29.386Z,3.50
2022-09-03T12:43:53.564Z,2.40
2022-09-03T12:46:32.004Z,2.77
2022-09-03T12:52:06.669Z,2.70
2022-09-03T12:54:37.062Z,3.10
2022-09-03T12:57:05.928Z,2.93
2022-09-03T12:59:38.725Z,1.70
2022-09-03T13:02:20.509Z,2.50
2022-09-03T13:04:48.962Z,2.60
2022-09-03T13:07:27.310Z,2.60
2022-09-03T13:10:04.920Z,2.27
2022-09-03T13:12:43.034Z,3.00
2022-09-03T13:15:19.762Z,2.80
2022-09-03T13:18:09.556Z,2.27
2022-09-03T13:20:53.502Z,2.33
2022-09-03T13:23:45.309Z,2.30
2022-09-03T13:26:26.838Z,2.30
2022-09-03T13:29:23.268Z,2.33
2022-09-03T13:31:55.473Z,1.97
2022-09-03T13:34:32.929Z,2.30
2022-09-03T13:37:13.933Z,2.10
2022-09-03T13:39:53.215Z,2.00
2022-09-03T13:42:28.455Z,2.23
2022-09-03T13:45:06.130Z,1.93
2022-09-03T13:48:03.202Z,1.87
2022-09-03T13:50:41.161Z,1.67
2022-09-03T13:53:18.632Z,1.80
2022-09-03T13:55:50.238Z,1.83
2022-09-03T13:58:28.089Z,2.40
2022-09-03T14:01:13.319Z,1.60
2022-09-03T14:03:49.310Z,1.90
2022-09-03T14:06:38.015Z,2.07
2022-09-03T14:09:16.912Z,1.80
2022-09-03T14:11:56.001Z,1.83
2022-09-03T14:14:41.030Z,2.20
2022-09-03T14:17:18.063Z,1.87
2022-09-03T14:19:54.201Z,1.80
2022-09-03T14:22:28.101Z,1.60
2022-09-03T14:25:01.346Z,1.90
2022-09-03T14:27:32.483Z,1.23
2022-09-03T14:30:04.012Z,2.03
2022-09-03T14:32:48.170Z,1.70
2022-09-03T14:35:51.682Z,1.90
2022-09-03T14:38:59.286Z,2.13
2022-09-03T14:42:04.883Z,1.93
2022-09-03T14:45:20.025Z,1.67
2022-09-03T14:48:24.615Z,1.93
2022-09-03T14:51:08.668Z,2.30
2022-09-03T14:54:16.068Z,1.57
2022-09-03T14:56:51.673Z,1.63
2022-09-03T15:00:06.351Z,1.67
2022-09-03T15:03:17.363Z,1.83
2022-09-03T15:06:05.717Z,1.80
2022-09-03T15:08:52.479Z,2.10
2022-09-03T15:11:25.790Z,1.83
2022-09-03T15:14:03.199Z,2.10
2022-09-03T15:16:47.040Z,2.60
2022-09-03T15:19:43.800Z,1.70
2022-09-03T15:22:26.981Z,1.80
2022-09-03T15:25:09.414Z,2.17
2022-09-03T15:28:07.060Z,1.77
2022-09-03T15:30:42.033Z,2.20
2022-09-03T15:33:22.202Z,2.53
2022-09-03T15:36:17.691Z,1.73
2022-09-03T15:38:53.848Z,2.63
2022-09-03T15:41:41.802Z,2.70
2022-09-03T15:44:19.227Z,2.43
2022-09-03T15:46:58.105Z,1.80
2022-09-03T15:49:45.129Z,2.37
2022-09-03T15:52:31.695Z,2.43
2022-09-03T15:55:08.790Z,2.00
2022-09-03T15:57:46.496Z,2.23
2022-09-03T16:00:21.255Z,2.53
2022-09-03T16:03:00.050Z,1.83
2022-09-03T16:05:43.346Z,2.17
2022-09-03T16:08:22.075Z,2.30
2022-09-03T16:11:01.694Z,2.40
2022-09-03T16:13:59.680Z,2.80
2022-09-03T16:16:46.134Z,2.20
2022-09-03T16:19:19.597Z,2.97
2022-09-03T16:21:52.446Z,2.67
2022-09-03T16:24:27.127Z,1.70
2022-09-03T16:26:59.636Z,1.37
2022-09-03T16:29:31.018Z,1.63
2022-09-03T16:32:28.089Z,1.00
2022-09-03T16:35:19.670Z,1.00
2022-09-03T16:38:03.356Z,1.00
2022-09-03T16:40:40.607Z,0.80
2022-09-03T16:43:39.738Z,0.83
2022-09-03T16:46:24.806Z,0.90
2022-09-03T16:49:10.926Z,2.27
2022-09-03T16:51:48.409Z,1.13
2022-09-03T16:54:39.086Z,1.87
2022-09-03T16:57:22.867Z,1.27
2022-09-03T17:00:10.737Z,1.10
2022-09-03T17:03:11.995Z,0.97
2022-09-03T17:06:02.853Z,0.97
2022-09-03T17:08:41.319Z,0.90
2022-09-03T17:11:24.483Z,1.20
2022-09-03T17:14:28.717Z,1.00
2022-09-03T17:17:06.376Z,1.20
2022-09-03T17:19:46.012Z,1.10
2022-09-03T17:22:32.764Z,0.93
2022-09-03T17:25:07.044Z,1.30
2022-09-03T17:27:50.652Z,1.53
2022-09-03T17:30:25.606Z,1.70
2022-09-03T17:33:37.582Z,1.40
2022-09-03T17:36:14.329Z,1.63
2022-09-03T17:39:49.877Z,2.20
2022-09-03T17:42:25.613Z,1.43
2022-09-03T17:45:11.786Z,1.13
2022-09-03T17:48:05.491Z,1.40
2022-09-03T17:50:45.276Z,1.30
2022-09-03T17:53:25.980Z,1.50
2022-09-03T17:56:00.698Z,13.43
2022-09-03T17:58:36.411Z,2.00
2022-09-03T18:01:16.574Z,2.87
2022-09-03T18:03:52.608Z,2.70
2022-09-03T18:06:29.399Z,1.57
2022-09-03T18:09:02.860Z,1.57
2022-09-03T18:11:38.474Z,1.30
2022-09-03T18:14:18.307Z,1.60
2022-09-03T18:16:53.920Z,1.37
2022-09-03T18:19:52.084Z,1.23
2022-09-03T18:22:42.394Z,1.17
2022-09-03T18:25:30.688Z,1.53
2022-09-03T18:28:23.566Z,1.03
2022-09-03T18:31:12.060Z,1.60
2022-09-03T18:33:57.947Z,1.07
2022-09-03T18:36:43.838Z,1.10
2022-09-03T18:39:35.234Z,1.77
2022-09-03T18:42:31.328Z,1.20
2022-09-03T18:45:42.293Z,1.93
2022-09-03T18:48:47.260Z,1.33
2022-09-03T18:51:45.628Z,1.30
2022-09-03T18:55:06.941Z,1.40
2022-09-03T18:58:13.391Z,1.40
2022-09-03T19:01:13.255Z,1.10
2022-09-03T19:04:14.586Z,1.10
2022-09-03T19:07:11.555Z,1.60
2022-09-03T19:10:12.566Z,1.90
2022-09-03T19:13:14.127Z,1.40
2022-09-03T19:16:13.491Z,1.30
2022-09-03T19:19:38.306Z,1.63
2022-09-03T19:22:28.063Z,1.33
2022-09-03T19:25:21.245Z,1.70
2022-09-03T19:28:22.741Z,1.10
2022-09-03T19:31:29.056Z,1.23
2022-09-03T19:34:25.642Z,1.13
2022-09-03T19:37:23.359Z,1.23
2022-09-03T19:40:25.802Z,1.30
2022-09-03T19:43:25.886Z,1.87
2022-09-03T19:46:26.606Z,1.53
2022-09-03T19:49:24.379Z,1.30
2022-09-03T19:52:22.087Z,1.10
2022-09-03T19:55:12.956Z,1.27
2022-09-03T19:58:01.063Z,1.37
2022-09-03T20:00:47.915Z,1.10
2022-09-03T20:03:35.306Z,1.10
2022-09-03T20:06:25.425Z,1.70
2022-09-03T20:09:11.358Z,1.10
2022-09-03T20:11:41.575Z,1.70
2022-09-03T20:14:16.305Z,1.60
2022-09-03T20:17:03.273Z,1.13
2022-09-03T20:19:48.780Z,1.30
2022-09-03T20:22:28.475Z,1.30
2022-09-03T20:25:15.071Z,1.50
2022-09-03T20:27:57.821Z,1.40
2022-09-03T20:30:34.903Z,1.23
2022-09-03T20:33:25.927Z,1.20
2022-09-03T20:36:08.641Z,1.43
2022-09-03T20:39:21.193Z,1.20
2022-09-03T20:42:02.860Z,1.20
2022-09-03T20:44:53.886Z,1.10
2022-09-03T20:47:47.156Z,1.43
2022-09-03T20:50:27.954Z,1.87
2022-09-03T20:53:11.108Z,1.30
2022-09-03T20:55:44.731Z,1.40
2022-09-03T20:58:20.749Z,2.00
2022-09-03T21:01:00.647Z,1.50
2022-09-03T21:03:36.584Z,1.60
2022-09-03T21:06:20.285Z,1.47
2022-09-03T21:09:10.938Z,1.50
2022-09-03T21:11:45.196Z,1.03
2022-09-03T21:14:31.986Z,1.33
2022-09-03T21:17:21.375Z,1.10
2022-09-03T21:20:04.817Z,1.77
2022-09-03T21:22:46.184Z,1.30
2022-09-03T21:25:21.648Z,1.80
2022-09-03T21:27:55.363Z,1.60
2022-09-03T21:30:23.607Z,1.20
2022-09-03T21:32:56.926Z,1.40
2022-09-03T21:35:29.489Z,1.30
2022-09-03T21:38:03.262Z,1.47
2022-09-03T21:40:36.366Z,1.33
2022-09-03T21:43:14.252Z,0.90
2022-09-03T21:45:48.330Z,1.30
2022-09-03T21:48:24.115Z,1.27
2022-09-03T21:50:56.324Z,1.10
2022-09-03T21:53:31.435Z,1.00
2022-09-03T21:56:32.789Z,1.33
2022-09-03T21:59:09.338Z,1.30
2022-09-03T22:01:53.633Z,1.10
2022-09-03T22:04:22.125Z,1.07
2022-09-03T22:07:01.657Z,1.20
2022-09-03T22:09:35.539Z,0.87
2022-09-03T22:12:14.041Z,1.23
2022-09-03T22:14:47.880Z,0.90
2022-09-03T22:17:21.849Z,1.17
2022-09-03T22:19:50.280Z,1.10
2022-09-03T22:22:26.542Z,0.90
2022-09-03T22:25:05.010Z,0.83
2022-09-03T22:27:45.003Z,1.33
2022-09-03T22:30:20.268Z,1.00
2022-09-03T22:33:00.683Z,0.70
2022-09-03T22:35:53.831Z,0.90
2022-09-03T22:38:50.789Z,0.80
2022-09-03T22:41:40.336Z,1.10
2022-09-03T22:44:28.594Z,1.37
2022-09-03T22:47:05.131Z,1.20
2022-09-03T22:49:45.207Z,1.07
2022-09-03T22:52:28.836Z,1.30
2022-09-03T22:55:21.238Z,1.27
2022-09-03T22:58:01.450Z,0.83
2022-09-03T23:00:39.411Z,1.00
2022-09-03T23:03:12.056Z,0.80
2022-09-03T23:05:51.971Z,0.90
2022-09-03T23:08:25.572Z,1.07
2022-09-03T23:11:03.118Z,0.80
2022-09-03T23:13:37.531Z,1.03
2022-09-03T23:16:14.870Z,1.07
2022-09-03T23:18:46.062Z,1.00
2022-09-03T23:21:23.084Z,0.93
2022-09-03T23:23:58.294Z,1.00
2022-09-03T23:26:37.274Z,1.00
2022-09-03T23:29:13.247Z,1.13
2022-09-03T23:31:43.506Z,1.20
2022-09-03T23:34:13.383Z,1.50
2022-09-03T23:37:29.729Z,1.37
2022-09-03T23:40:08.951Z,1.27
2022-09-03T23:42:54.754Z,1.57
2022-09-03T23:45:37.067Z,1.73
2022-09-03T23:48:19.063Z,1.50
2022-09-03T23:50:57.199Z,1.30
2022-09-03T23:53:35.839Z,1.93
2022-09-03T23:56:45.922Z,1.27
2022-09-03T23:59:20.855Z,1.37
